createdAt,value
2018-07-08T17:06:37.063Z,36.60
2018-07-08T17:11:40.356Z,37.30
2018-07-08T17:16:43.667Z,37.50
2018-07-08T17:21:46.969Z,39.20
2018-07-08T17:26:50.260Z,37.50
2018-07-08T17:31:54.430Z,39.10
2018-07-08T17:36:57.694Z,40.40
2018-07-08T17:42:01.418Z,40.00
2018-07-08T17:47:05.236Z,41.10
2018-07-08T17:52:08.546Z,39.70
2018-07-08T17:57:11.897Z,40.10
2018-07-08T18:02:15.356Z,41.90
2018-07-08T18:07:18.759Z,40.50
2018-07-08T18:12:22.185Z,41.20
2018-07-08T18:17:25.466Z,43.70
2018-07-08T18:22:29.749Z,43.70
2018-07-08T18:27:33.162Z,44.70
2018-07-08T18:32:36.779Z,45.80
2018-07-08T18:37:40.102Z,46.00
2018-07-08T18:42:43.507Z,46.10
2018-07-08T18:47:46.812Z,46.40
2018-07-08T18:52:50.084Z,47.00
2018-07-08T18:57:53.542Z,47.40
2018-07-08T19:02:57.047Z,48.20
2018-07-08T19:08:00.335Z,48.80
2018-07-08T19:13:03.692Z,49.00
2018-07-08T19:18:06.972Z,50.00
2018-07-08T19:23:10.306Z,50.80
2018-07-08T19:28:13.608Z,51.50
2018-07-08T19:33:17.516Z,51.80
2018-07-08T19:38:20.875Z,52.00
2018-07-08T19:43:24.144Z,52.30
2018-07-08T19:48:27.457Z,52.80
2018-07-08T19:53:30.746Z,52.90
2018-07-08T19:58:34.013Z,53.20
2018-07-08T20:03:37.321Z,53.20
2018-07-08T20:08:40.907Z,53.40
2018-07-08T20:13:44.893Z,53.70
2018-07-08T20:18:49.726Z,54.30
2018-07-08T20:23:53.650Z,54.70
2018-07-08T20:28:58.125Z,55.10
2018-07-08T20:34:03.798Z,55.90
2018-07-08T20:39:08.546Z,56.20
2018-07-08T20:44:13.454Z,56.30
2018-07-08T20:49:17.066Z,56.40
2018-07-08T20:54:20.646Z,56.50
2018-07-08T20:59:23.931Z,57.00
2018-07-08T21:04:27.256Z,57.10
2018-07-08T21:09:30.557Z,58.20
2018-07-08T21:14:33.839Z,58.90
2018-07-08T21:19:37.393Z,60.00
2018-07-08T21:24:40.769Z,61.20
2018-07-08T21:29:44.157Z,61.20
2018-07-08T21:34:47.491Z,60.90
2018-07-08T21:39:50.779Z,60.80
2018-07-08T21:44:54.777Z,60.70
2018-07-08T21:49:58.080Z,61.90
2018-07-08T21:55:01.414Z,62.60
2018-07-08T22:00:05.496Z,64.30
2018-07-08T22:05:08.810Z,64.50
2018-07-08T22:10:12.115Z,64.80
2018-07-08T22:15:15.376Z,65.10
2018-07-08T22:20:18.657Z,64.60
2018-07-08T22:25:21.994Z,64.40
2018-07-08T22:30:25.287Z,64.90
2018-07-08T22:35:28.591Z,65.20
2018-07-08T22:40:31.896Z,65.90
2018-07-08T22:45:35.202Z,66.20
2018-07-08T22:50:38.530Z,66.60
2018-07-08T22:55:41.819Z,68.00
2018-07-08T23:00:56.368Z,68.90
2018-07-08T23:05:59.683Z,70.00
2018-07-08T23:11:02.954Z,70.60
2018-07-08T23:16:06.261Z,71.10
2018-07-08T23:21:09.560Z,72.60
2018-07-08T23:26:12.869Z,72.90
2018-07-08T23:31:16.143Z,73.10
2018-07-08T23:36:19.449Z,73.60
2018-07-08T23:41:22.715Z,74.20
2018-07-08T23:46:26.027Z,74.70
2018-07-08T23:51:29.335Z,74.40
2018-07-08T23:56:32.606Z,75.20
